Antlers, Oklahoma
Current Conditions -  °F | °C
As of 11:55 PM on Saturday 22 Nov 2014 (Local Time) from KHHW Reporting Station
Overcast Overcast  
Wind Chill: 61°   Ceiling: 800
Heat Index: 61°   Visibility: 10mi
Dew Point: 58°   Wind: 8mph
Humidity: 89%   Direction: 160°SSE
Pressure: 29.71"   Gusts: NA
Location:  34.23°N, 95.62°W
Report Text: KHHW 230555Z AUTO 16007KT 10SM OVC008 16/15 A2971 RMK AO2 T01630145 10164 20146 401720131
Loading
Personal Weather Stations






























Interactive Weather Map New forecast layout! Learn more

10-Day Weather Forecast

Advertisements
Track Severe Weather on mobile